Time;durP1;ratioP1;P1;durP2;ratioP2;P2;SDS_P1;SDS_P2;PMS_P1;PMS_P2;Temp;Humidity;BMP_temperature;BMP_pressure;BME280_temperature;BME280_humidity;BME280_pressure;Samples;Min_cycle;Max_cycle;Signal;HPM_P1;HPM_P2
2022/12/28 00:00:22;;;;;;;6.40;2.00;;;;;;;8.96;58.25;101265.25;105690;1308;21969;-63
2022/12/28 00:02:48;;;;;;;5.00;1.70;;;;;;;8.93;58.21;101271.35;105621;1305;22006;-63
2022/12/28 00:05:17;;;;;;;7.00;2.20;;;;;;;8.89;58.09;101280.77;105671;1309;22077;-62
2022/12/28 00:07:43;;;;;;;6.70;2.40;;;;;;;8.75;57.61;101290.08;105629;1309;22011;-63
2022/12/28 00:10:10;;;;;;;7.50;2.30;;;;;;;8.74;57.93;101299.89;105699;1308;22849;-63
2022/12/28 00:12:36;;;;;;;7.50;1.80;;;;;;;8.71;58.05;101301.05;105727;1309;22009;-65
2022/12/28 00:15:02;;;;;;;7.70;2.00;;;;;;;8.66;58.03;101308.89;105696;1307;21960;-62
2022/12/28 00:17:28;;;;;;;7.90;2.00;;;;;;;8.66;58.17;101311.51;105675;1307;22203;-63
2022/12/28 00:19:54;;;;;;;8.20;2.10;;;;;;;8.67;58.00;101309.79;105686;1308;21973;-62
2022/12/28 00:22:19;;;;;;;6.90;2.80;;;;;;;8.68;57.93;101315.04;105665;1306;22427;-62
2022/12/28 00:24:45;;;;;;;7.90;2.80;;;;;;;8.65;57.99;101312.02;105657;1308;22010;-62
2022/12/28 00:27:11;;;;;;;6.20;2.00;;;;;;;8.69;57.98;101308.05;105662;1306;22059;-62
2022/12/28 00:29:37;;;;;;;9.50;2.40;;;;;;;8.69;58.15;101310.33;105624;1309;21959;-62
2022/12/28 00:32:03;;;;;;;5.50;1.80;;;;;;;8.79;58.18;101308.86;105678;1307;21973;-63
2022/12/28 00:34:29;;;;;;;7.60;2.20;;;;;;;8.75;58.28;101312.14;105741;1308;21981;-61
2022/12/28 00:36:55;;;;;;;8.50;2.20;;;;;;;8.77;58.17;101318.82;105638;1309;22011;-61
2022/12/28 00:39:21;;;;;;;6.10;1.60;;;;;;;8.87;58.26;101316.45;105669;1304;22012;-61
2022/12/28 00:41:47;;;;;;;7.80;1.90;;;;;;;8.87;57.90;101316.27;105654;1309;21959;-62
2022/12/28 00:44:13;;;;;;;10.90;2.20;;;;;;;8.91;57.94;101322.10;105686;1309;21972;-64
2022/12/28 00:46:39;;;;;;;7.20;1.70;;;;;;;8.90;58.02;101328.02;105621;1309;22082;-61
2022/12/28 00:49:04;;;;;;;8.80;2.30;;;;;;;8.88;57.87;101330.11;105722;1306;22075;-61
2022/12/28 00:51:31;;;;;;;8.80;2.20;;;;;;;8.89;57.85;101329.59;105631;1306;21959;-61
2022/12/28 00:53:57;;;;;;;6.70;2.80;;;;;;;8.89;57.94;101331.69;105659;1304;21964;-61
2022/12/28 00:56:23;;;;;;;7.10;2.50;;;;;;;8.87;57.88;101334.13;105662;1307;21963;-62
2022/12/28 00:58:49;;;;;;;7.30;2.00;;;;;;;8.85;58.00;101333.93;105798;1309;22747;-62
2022/12/28 01:01:19;;;;;;;7.10;2.10;;;;;;;8.86;58.12;101340.77;105765;1307;21960;-64
2022/12/28 01:03:45;;;;;;;7.20;1.70;;;;;;;8.87;57.89;101340.26;105715;1309;21954;-62
2022/12/28 01:06:13;;;;;;;5.00;1.60;;;;;;;8.90;57.81;101341.17;105758;1308;21972;-64
2022/12/28 01:08:40;;;;;;;6.40;2.00;;;;;;;8.77;57.53;101344.54;104916;1301;1002233;-62
2022/12/28 01:11:11;;;;;;;8.70;1.90;;;;;;;8.71;57.52;101347.10;105688;1309;21976;-64
2022/12/28 01:13:37;;;;;;;7.10;2.50;;;;;;;8.61;57.66;101348.91;105708;1304;21972;-62
2022/12/28 01:16:11;;;;;;;8.90;2.30;;;;;;;8.70;58.01;101345.85;105746;1304;21963;-62
2022/12/28 01:18:36;;;;;;;7.00;1.90;;;;;;;8.74;58.02;101346.42;105674;1309;21971;-62
2022/12/28 01:21:17;;;;;;;10.90;2.10;;;;;;;8.71;58.16;101353.38;105651;1309;21971;-64
2022/12/28 01:23:44;;;;;;;8.20;2.00;;;;;;;8.68;57.95;101362.09;105652;1308;21962;-62
2022/12/28 01:26:11;;;;;;;7.30;1.90;;;;;;;8.65;58.06;101358.92;105660;1307;22587;-61
2022/12/28 01:28:36;;;;;;;8.50;3.20;;;;;;;8.60;58.01;101358.87;105646;1308;21967;-62
2022/12/28 01:31:06;;;;;;;6.30;2.10;;;;;;;8.56;58.12;101362.33;105620;1307;21969;-62
2022/12/28 01:33:33;;;;;;;7.40;2.20;;;;;;;8.53;58.17;101363.16;105714;1306;21992;-61
2022/12/28 01:35:58;;;;;;;12.00;2.10;;;;;;;8.49;58.33;101365.38;105645;1307;21970;-61
2022/12/28 01:38:24;;;;;;;7.80;2.20;;;;;;;8.46;58.27;101366.36;104901;1309;1002773;-62
2022/12/28 01:40:50;;;;;;;8.30;1.80;;;;;;;8.43;58.24;101368.25;105683;1307;21975;-64
2022/12/28 01:43:17;;;;;;;8.10;2.40;;;;;;;8.41;58.33;101371.38;105622;1309;21977;-64
2022/12/28 01:45:46;;;;;;;7.80;2.20;;;;;;;8.40;58.30;101378.88;105608;1296;22049;-62
2022/12/28 01:48:18;;;;;;;6.90;1.90;;;;;;;8.38;58.49;101381.14;105667;1308;22015;-63
2022/12/28 01:50:44;;;;;;;8.60;2.00;;;;;;;8.37;58.52;101381.99;105634;1309;21950;-62
2022/12/28 01:53:10;;;;;;;8.80;2.00;;;;;;;8.35;58.58;101381.61;105587;1309;21981;-64
2022/12/28 01:55:39;;;;;;;6.80;2.10;;;;;;;8.29;58.55;101382.60;105578;1309;21969;-61
2022/12/28 01:58:12;;;;;;;5.70;2.10;;;;;;;8.26;58.63;101381.52;105692;1309;21977;-61
2022/12/28 02:00:39;;;;;;;8.70;2.40;;;;;;;8.26;58.66;101380.63;105630;1309;22922;-61
2022/12/28 02:03:11;;;;;;;6.00;1.50;;;;;;;8.19;58.60;101378.79;105816;1304;21965;-62
2022/12/28 02:05:39;;;;;;;9.10;1.70;;;;;;;8.12;58.81;101376.42;105650;1305;21969;-62
2022/12/28 02:08:25;;;;;;;5.10;1.70;;;;;;;8.14;58.87;101378.38;105747;1308;22011;-63
2022/12/28 02:10:51;;;;;;;9.50;2.20;;;;;;;8.20;58.83;101379.50;105714;1307;21979;-64
2022/12/28 02:13:17;;;;;;;6.00;1.60;;;;;;;8.18;58.86;101377.35;105766;1304;21976;-62
2022/12/28 02:15:43;;;;;;;4.70;1.80;;;;;;;8.17;58.65;101382.95;105666;1305;21971;-62
2022/12/28 02:18:10;;;;;;;6.90;1.80;;;;;;;8.13;59.00;101375.73;105793;1304;21975;-64
2022/12/28 02:21:14;;;;;;;5.50;2.00;;;;;;;8.14;59.07;101378.55;105612;1309;21968;-62
2022/12/28 02:24:04;;;;;;;9.10;2.10;;;;;;;8.11;59.01;101379.73;105724;1309;21962;-63
2022/12/28 02:27:04;;;;;;;6.70;2.00;;;;;;;8.06;59.13;101380.02;105717;1307;21988;-63
2022/12/28 02:30:06;;;;;;;6.50;2.20;;;;;;;8.07;59.29;101378.10;105644;1305;21952;-62
2022/12/28 02:32:43;;;;;;;8.90;2.30;;;;;;;8.02;59.39;101380.65;105667;1308;23731;-62
2022/12/28 02:35:42;;;;;;;6.00;1.80;;;;;;;7.98;59.47;101380.92;105674;1304;21971;-62
2022/12/28 02:38:26;;;;;;;6.50;2.20;;;;;;;7.98;59.63;101379.73;105724;1309;23525;-64
2022/12/28 02:40:57;;;;;;;7.20;2.20;;;;;;;8.05;59.72;101380.68;105617;1309;21982;-62
2022/12/28 02:43:24;;;;;;;6.00;2.10;;;;;;;8.11;59.55;101379.73;105612;1309;24345;-64
2022/12/28 02:51:47;;;;;;;8.10;2.30;;;;;;;8.09;59.31;101386.52;105602;1307;21966;-62
2022/12/28 02:57:33;;;;;;;6.30;1.90;;;;;;;8.08;59.28;101387.20;105684;1301;21932;-64
2022/12/28 03:00:14;;;;;;;8.50;2.10;;;;;;;8.03;59.21;101392.55;105773;1307;21988;-61
2022/12/28 03:02:49;;;;;;;7.00;2.00;;;;;;;7.98;59.23;101398.78;105724;1309;21958;-64
2022/12/28 03:08:13;;;;;;;6.60;2.10;;;;;;;7.99;59.04;101397.21;105008;1308;1002583;-61
2022/12/28 03:08:18;;;;;;;6.10;2.20;;;;;;;7.95;59.10;101401.16;105009;1307;1002857;-63
2022/12/28 03:10:52;;;;;;;6.10;2.40;;;;;;;7.93;59.18;101401.66;104930;1304;1006821;-64
2022/12/28 03:16:08;;;;;;;8.40;2.00;;;;;;;7.86;59.39;101402.79;105696;1304;21960;-62
2022/12/28 03:32:34;;;;;;;7.00;2.90;;;;;;;7.79;59.11;101436.39;105579;1306;21957;-64
2022/12/28 03:34:59;;;;;;;5.50;2.10;;;;;;;7.77;59.04;101443.02;105568;1306;21961;-63
2022/12/28 03:37:51;;;;;;;7.30;2.70;;;;;;;7.76;58.92;101450.34;105575;1307;21953;-64
2022/12/28 03:40:26;;;;;;;6.70;2.80;;;;;;;7.76;58.92;101451.73;105644;1298;21968;-62
2022/12/28 03:45:51;;;;;;;6.60;2.50;;;;;;;7.79;59.00;101454.58;105686;1307;21998;-63
2022/12/28 03:48:17;;;;;;;7.80;2.90;;;;;;;7.79;59.01;101455.27;105619;1307;22725;-61
2022/12/28 03:50:45;;;;;;;8.90;2.60;;;;;;;7.79;59.01;101455.46;105520;1307;21960;-63
2022/12/28 03:53:12;;;;;;;8.80;2.60;;;;;;;7.78;58.95;101455.42;105691;1304;21973;-62
2022/12/28 03:55:38;;;;;;;5.70;2.60;;;;;;;7.76;58.93;101454.17;105593;1307;21967;-63
2022/12/28 03:58:04;;;;;;;9.30;2.80;;;;;;;7.73;59.04;101458.85;104885;1306;1003216;-64
2022/12/28 04:00:30;;;;;;;6.00;3.00;;;;;;;7.72;58.99;101457.27;105677;1305;21978;-63
2022/12/28 04:02:55;;;;;;;7.40;2.70;;;;;;;7.76;59.07;101458.17;105709;1307;22772;-62
2022/12/28 04:05:22;;;;;;;8.80;2.70;;;;;;;7.73;58.96;101454.66;105753;1304;21967;-61
2022/12/28 04:07:48;;;;;;;10.00;2.90;;;;;;;7.73;59.04;101455.17;105702;1307;22000;-64
2022/12/28 04:10:14;;;;;;;7.30;2.90;;;;;;;7.72;58.82;101456.22;105790;1307;22081;-63
2022/12/28 04:12:40;;;;;;;11.10;3.20;;;;;;;7.71;58.76;101458.65;105773;1307;21982;-62
2022/12/28 04:15:07;;;;;;;7.60;2.90;;;;;;;7.69;58.78;101463.85;105770;1307;21976;-62
2022/12/28 04:17:32;;;;;;;10.20;2.70;;;;;;;7.69;59.04;101468.73;105688;1307;21960;-62
2022/12/28 04:19:59;;;;;;;10.00;2.60;;;;;;;7.69;59.05;101471.89;105664;1305;21966;-63
2022/12/28 04:22:25;;;;;;;9.40;2.70;;;;;;;7.69;58.92;101480.10;105722;1307;22015;-64
2022/12/28 04:24:50;;;;;;;6.30;2.70;;;;;;;7.69;58.89;101482.89;105711;1307;21965;-64
2022/12/28 04:27:16;;;;;;;7.10;2.70;;;;;;;7.68;58.71;101481.31;105675;1305;21974;-61
2022/12/28 04:29:42;;;;;;;8.40;2.70;;;;;;;7.66;58.59;101487.73;105668;1307;22072;-61
2022/12/28 04:32:08;;;;;;;8.10;3.20;;;;;;;7.64;58.57;101494.70;105675;1307;21976;-61
2022/12/28 04:34:34;;;;;;;6.70;2.50;;;;;;;7.63;58.48;101494.49;105601;1305;21965;-64
2022/12/28 04:37:00;;;;;;;7.20;2.40;;;;;;;7.60;58.60;101497.77;105661;1307;21961;-62
2022/12/28 04:39:26;;;;;;;5.90;2.20;;;;;;;7.59;58.73;101498.61;105639;1307;21962;-61
2022/12/28 04:41:51;;;;;;;7.90;2.60;;;;;;;7.55;58.78;101496.45;105599;1305;21961;-64
2022/12/28 04:44:17;;;;;;;9.80;3.10;;;;;;;7.54;58.62;101493.63;105640;1307;22255;-62
2022/12/28 04:46:43;;;;;;;8.00;3.10;;;;;;;7.50;58.69;101490.60;105598;1303;22014;-63
2022/12/28 04:49:09;;;;;;;9.90;3.00;;;;;;;7.46;58.59;101487.73;105645;1304;21955;-62
2022/12/28 04:51:36;;;;;;;11.20;3.20;;;;;;;7.45;58.55;101488.23;105783;1306;21960;-63
2022/12/28 04:54:01;;;;;;;10.00;2.70;;;;;;;7.44;58.48;101489.60;105706;1303;21964;-63
2022/12/28 04:56:27;;;;;;;12.10;3.00;;;;;;;7.42;58.76;101489.92;105671;1308;21974;-61
2022/12/28 04:58:58;;;;;;;8.00;2.70;;;;;;;7.34;58.79;101488.37;105659;1308;21980;-61
2022/12/28 05:01:23;;;;;;;7.30;2.80;;;;;;;7.36;58.52;101488.05;105743;1307;21965;-61
2022/12/28 05:03:52;;;;;;;8.30;3.40;;;;;;;7.34;58.70;101491.17;105741;1308;21967;-62
2022/12/28 05:06:20;;;;;;;7.50;2.80;;;;;;;7.31;58.83;101494.95;105731;1307;21964;-61
2022/12/28 05:08:46;;;;;;;10.70;3.10;;;;;;;7.29;59.02;101497.00;105716;1304;21972;-63
2022/12/28 05:11:23;;;;;;;7.80;3.60;;;;;;;7.28;58.73;101503.11;105690;1304;21973;-62
2022/12/28 07:23:52;;;;;;;22.60;7.50;;;;;;;6.92;82.35;101656.64;105880;1302;544361;-57
2022/12/28 07:26:20;;;;;;;19.10;6.30;;;;;;;7.49;75.56;101657.53;106092;1305;21960;-58
2022/12/28 07:28:46;;;;;;;27.00;8.00;;;;;;;7.80;72.68;101658.52;106011;1304;21970;-57
2022/12/28 07:31:14;;;;;;;15.00;6.00;;;;;;;8.06;71.36;101666.88;106077;1305;21974;-57
2022/12/28 07:33:39;;;;;;;29.50;7.10;;;;;;;8.28;70.27;101668.15;106134;1304;23060;-57
2022/12/28 07:36:06;;;;;;;19.70;6.80;;;;;;;8.46;69.29;101674.42;106082;1304;21978;-58
2022/12/28 07:38:32;;;;;;;14.20;5.10;;;;;;;8.59;68.30;101675.01;106251;1295;184954;-58
2022/12/28 07:41:04;;;;;;;15.70;5.10;;;;;;;8.69;67.57;101676.56;106407;1304;21968;-59
2022/12/28 07:43:32;;;;;;;14.00;4.70;;;;;;;8.82;67.22;101682.73;106190;1298;21961;-57
2022/12/28 07:46:05;;;;;;;30.30;8.50;;;;;;;8.94;67.06;101684.49;106172;1303;21964;-58
2022/12/28 07:48:32;;;;;;;31.60;7.90;;;;;;;9.04;66.46;101684.29;106243;1299;21967;-58
2022/12/28 07:51:07;;;;;;;23.80;6.70;;;;;;;9.14;65.90;101686.72;106248;1304;22425;-59
2022/12/28 07:53:37;;;;;;;14.20;5.20;;;;;;;9.24;65.06;101680.73;106428;1304;23055;-59
2022/12/28 07:56:03;;;;;;;11.50;4.90;;;;;;;9.30;64.39;101680.27;106396;1303;21952;-58
2022/12/28 07:58:29;;;;;;;18.00;5.60;;;;;;;9.39;64.20;101680.58;106181;1304;21945;-59
2022/12/28 08:01:11;;;;;;;17.40;6.30;;;;;;;9.49;64.04;101685.61;106169;1299;21962;-59
2022/12/28 08:03:37;;;;;;;11.00;5.00;;;;;;;9.53;63.22;101686.72;106128;1304;21954;-59
2022/12/28 08:06:18;;;;;;;20.20;6.00;;;;;;;9.61;63.38;101684.19;106386;1298;21965;-59
2022/12/28 08:08:45;;;;;;;14.50;5.20;;;;;;;9.69;63.21;101685.16;106151;1304;21979;-58
2022/12/28 08:11:12;;;;;;;16.70;5.70;;;;;;;9.75;62.89;101689.44;106159;1303;22166;-59
2022/12/28 08:13:40;;;;;;;12.10;4.80;;;;;;;9.83;62.74;101689.36;106142;1304;21988;-57
2022/12/28 08:16:15;;;;;;;9.20;3.80;;;;;;;9.89;62.24;101690.84;106175;1304;21967;-57
2022/12/28 08:18:41;;;;;;;12.30;4.50;;;;;;;9.87;61.60;101693.79;105382;1285;1003700;-56
2022/12/28 08:21:10;;;;;;;9.80;3.90;;;;;;;9.86;61.05;101688.34;106129;1304;21964;-58
2022/12/28 08:23:38;;;;;;;23.20;6.20;;;;;;;9.97;61.75;101683.02;106185;1304;23779;-57
2022/12/28 08:26:05;;;;;;;11.50;4.60;;;;;;;9.97;60.57;101683.20;106079;1301;21965;-58
2022/12/28 08:28:31;;;;;;;11.10;3.70;;;;;;;9.98;60.06;101686.36;106257;1300;21962;-57
2022/12/28 08:30:57;;;;;;;7.50;3.70;;;;;;;10.07;59.83;101682.79;106348;1304;21960;-57
2022/12/28 08:33:23;;;;;;;10.10;4.00;;;;;;;10.18;60.54;101685.52;106156;1302;21968;-57
2022/12/28 08:35:48;;;;;;;7.10;3.40;;;;;;;10.28;60.65;101681.59;106111;1299;21978;-57
2022/12/28 08:38:14;;;;;;;7.70;3.80;;;;;;;10.40;60.89;101682.08;106136;1303;21949;-58
2022/12/28 08:40:40;;;;;;;5.90;3.30;;;;;;;10.38;59.80;101682.05;106129;1297;21999;-58
2022/12/28 08:43:05;;;;;;;11.40;5.10;;;;;;;10.33;58.85;101677.80;106168;1304;21973;-57
2022/12/28 08:45:31;;;;;;;12.00;4.50;;;;;;;10.38;58.65;101675.20;106252;1304;21956;-57
2022/12/28 08:47:57;;;;;;;9.70;4.00;;;;;;;10.55;58.84;101672.41;106089;1295;21960;-57
2022/12/28 08:50:23;;;;;;;7.90;3.70;;;;;;;10.59;58.57;101669.45;106136;1304;21963;-57
2022/12/28 08:52:49;;;;;;;9.70;3.60;;;;;;;10.59;58.55;101668.75;105530;1294;1002628;-57
2022/12/28 08:55:15;;;;;;;13.10;4.40;;;;;;;10.63;58.30;101669.65;106448;1304;22036;-57
2022/12/28 08:57:40;;;;;;;11.30;4.30;;;;;;;10.71;58.65;101669.89;106339;1304;21953;-57
2022/12/28 09:00:07;;;;;;;7.10;3.30;;;;;;;10.81;58.35;101664.17;105542;1304;1002847;-57
2022/12/28 09:02:34;;;;;;;8.80;3.60;;;;;;;10.91;58.64;101663.90;106137;1304;21957;-57
2022/12/28 09:05:00;;;;;;;10.60;3.70;;;;;;;10.96;57.55;101662.89;106119;1304;21963;-58
2022/12/28 09:07:25;;;;;;;9.80;3.60;;;;;;;10.97;57.22;101660.08;106214;1304;21976;-58
2022/12/28 09:09:51;;;;;;;10.50;4.00;;;;;;;11.08;57.32;101661.01;106096;1302;21961;-57
2022/12/28 09:12:17;;;;;;;8.00;3.70;;;;;;;10.93;56.02;101668.81;106225;1304;21960;-57
2022/12/28 09:14:42;;;;;;;10.50;3.90;;;;;;;10.98;56.30;101669.55;106409;1304;21955;-57
2022/12/28 09:17:08;;;;;;;10.00;4.10;;;;;;;11.01;56.56;101665.90;106419;1299;22001;-57
2022/12/28 09:19:34;;;;;;;9.30;3.60;;;;;;;10.94;55.92;101666.39;106418;1301;21978;-58
2022/12/28 09:22:00;;;;;;;7.00;3.70;;;;;;;11.18;56.91;101667.58;106407;1304;21953;-57
2022/12/28 09:24:26;;;;;;;7.30;3.60;;;;;;;11.14;56.14;101664.21;106130;1302;21963;-58
2022/12/28 09:26:54;;;;;;;10.30;3.90;;;;;;;11.20;55.71;101668.30;106172;1304;21954;-57
2022/12/28 09:29:20;;;;;;;9.90;4.50;;;;;;;11.28;55.90;101666.41;106244;1304;23695;-57
2022/12/28 09:31:46;;;;;;;11.80;4.70;;;;;;;11.30;56.04;101664.48;106196;1304;21975;-57
2022/12/28 09:34:12;;;;;;;11.00;4.30;;;;;;;11.30;55.95;101662.91;106160;1304;21951;-57
2022/12/28 09:36:42;;;;;;;13.60;4.50;;;;;;;11.29;55.93;101662.55;106326;1302;21958;-57
2022/12/28 09:39:16;;;;;;;7.10;3.50;;;;;;;11.34;56.18;101660.45;106503;1304;21956;-57
2022/12/28 09:41:57;;;;;;;10.00;4.40;;;;;;;11.23;55.73;101660.92;106395;1303;21959;-57
2022/12/28 09:44:29;;;;;;;8.10;3.90;;;;;;;11.21;55.30;101660.23;106423;1303;21974;-57
2022/12/28 09:47:07;;;;;;;10.90;4.40;;;;;;;11.33;55.61;101659.58;106209;1304;21970;-57
2022/12/28 09:50:06;;;;;;;10.40;4.40;;;;;;;11.36;55.37;101660.29;106323;1304;21958;-57
2022/12/28 09:52:41;;;;;;;7.10;3.70;;;;;;;11.29;55.25;101655.16;106165;1304;21966;-58
2022/12/28 09:55:15;;;;;;;9.50;3.60;;;;;;;11.23;55.22;101654.45;106056;1302;23624;-58
2022/12/28 09:57:44;;;;;;;6.50;3.40;;;;;;;11.24;55.17;101650.39;106127;1304;21975;-57
2022/12/28 10:00:21;;;;;;;6.10;3.50;;;;;;;11.15;54.84;101652.81;106190;1304;22998;-57
2022/12/28 10:03:01;;;;;;;10.20;4.10;;;;;;;11.22;55.13;101657.41;106093;1304;21972;-58
2022/12/28 10:05:28;;;;;;;6.20;3.60;;;;;;;11.32;55.49;101655.00;106095;1304;23077;-57
2022/12/28 10:08:00;;;;;;;6.00;3.30;;;;;;;11.24;54.36;101656.90;106182;1304;23746;-57
2022/12/28 10:10:25;;;;;;;7.40;3.80;;;;;;;11.36;54.96;101657.30;106107;1304;21967;-57
2022/12/28 10:12:51;;;;;;;7.30;3.50;;;;;;;11.33;54.17;101663.27;106189;1297;21963;-57
2022/12/28 10:15:17;;;;;;;6.70;3.70;;;;;;;11.42;54.44;101663.48;106108;1296;21969;-57
2022/12/28 10:17:44;;;;;;;9.60;3.70;;;;;;;11.51;54.68;101663.34;106132;1304;21964;-58
2022/12/28 10:20:15;;;;;;;7.50;3.80;;;;;;;11.62;54.68;101660.23;106055;1304;22007;-57
2022/12/28 10:22:42;;;;;;;7.90;3.90;;;;;;;11.73;54.43;101656.41;106122;1303;21971;-57
2022/12/28 10:25:13;;;;;;;7.50;3.80;;;;;;;11.80;53.78;101653.09;106392;1304;21995;-58
2022/12/28 10:27:39;;;;;;;;;;;;;;;12.05;54.52;101653.53;106189;1298;21954;-58
2022/12/28 10:30:09;;;;;;;7.70;4.70;;;;;;;12.13;53.99;101648.97;106428;1299;21969;-57
2022/12/28 10:32:55;;;;;;;8.50;4.10;;;;;;;12.31;54.95;101647.05;106166;1304;22750;-58
2022/12/28 10:35:22;;;;;;;9.10;4.30;;;;;;;12.51;54.89;101645.83;106106;1299;21998;-58
2022/12/28 10:37:47;;;;;;;5.90;3.60;;;;;;;12.66;54.75;101643.55;106095;1304;21963;-58
2022/12/28 10:40:26;;;;;;;8.30;3.90;;;;;;;12.79;55.03;101640.17;106077;1304;21966;-58
2022/12/28 10:42:53;;;;;;;7.50;3.70;;;;;;;12.72;53.06;101637.88;106077;1304;21960;-58
2022/12/28 10:45:34;;;;;;;8.40;3.20;;;;;;;12.58;51.84;101639.48;106191;1304;23708;-58
2022/12/28 10:48:00;;;;;;;7.90;3.80;;;;;;;12.49;51.62;101640.02;106269;1296;21998;-58
2022/12/28 10:50:58;;;;;;;7.80;3.80;;;;;;;12.60;52.54;101637.90;105830;1304;21981;-57
2022/12/28 10:53:32;;;;;;;5.80;3.60;;;;;;;12.61;52.06;101643.89;106160;1304;21976;-58
2022/12/28 10:56:13;;;;;;;9.00;4.10;;;;;;;12.81;52.87;101646.69;106222;1301;21961;-58
2022/12/28 10:58:40;;;;;;;7.50;3.80;;;;;;;13.02;53.25;101648.59;106214;1304;21967;-57
2022/12/28 11:01:14;;;;;;;8.40;3.90;;;;;;;13.03;51.63;101649.83;106194;1304;21965;-58
2022/12/28 11:03:40;;;;;;;7.90;4.00;;;;;;;13.12;52.15;101646.28;106110;1299;22035;-58
2022/12/28 11:06:14;;;;;;;10.10;4.20;;;;;;;13.24;52.28;101649.24;106258;1304;21953;-58
2022/12/28 11:08:46;;;;;;;8.30;4.30;;;;;;;13.32;52.38;101651.86;106348;1302;22033;-56
2022/12/28 11:11:21;;;;;;;8.90;4.30;;;;;;;13.45;52.15;101645.15;106222;1302;21975;-57
2022/12/28 11:13:51;;;;;;;9.20;4.10;;;;;;;13.55;52.03;101639.29;106145;1304;21964;-57
2022/12/28 11:16:18;;;;;;;9.00;4.20;;;;;;;13.56;51.78;101645.80;106168;1304;21970;-57
2022/12/28 11:18:47;;;;;;;8.50;4.00;;;;;;;13.42;50.13;101648.66;106113;1302;21975;-56
2022/12/28 11:21:18;;;;;;;11.60;4.40;;;;;;;13.48;50.83;101642.83;106168;1304;21963;-58
2022/12/28 11:23:48;;;;;;;10.00;4.50;;;;;;;13.45;50.28;101644.41;106281;1304;21965;-56
2022/12/28 11:26:13;;;;;;;6.50;3.40;;;;;;;13.42;50.36;101643.02;106135;1304;22756;-57
2022/12/28 11:28:43;;;;;;;8.00;4.00;;;;;;;13.48;50.25;101644.77;106129;1303;21992;-56
2022/12/28 11:31:20;;;;;;;6.80;3.80;;;;;;;13.50;50.45;101644.59;105853;1304;23079;-57
2022/12/28 11:33:55;;;;;;;7.80;3.20;;;;;;;13.48;49.79;101642.48;106296;1304;23734;-57
2022/12/28 11:36:22;;;;;;;10.90;3.60;;;;;;;13.46;49.39;101637.02;106143;1304;21962;-58
2022/12/28 11:38:50;;;;;;;8.90;4.00;;;;;;;13.43;49.71;101635.80;106272;1304;21965;-58
2022/12/28 11:41:22;;;;;;;8.50;4.10;;;;;;;13.52;51.19;101640.36;106137;1304;23792;-58
2022/12/28 11:43:55;;;;;;;11.40;5.10;;;;;;;13.52;50.51;101643.52;106123;1301;21962;-57
2022/12/28 11:46:21;;;;;;;18.10;6.80;;;;;;;13.57;50.59;101648.11;106108;1304;21974;-57
2022/12/28 11:48:58;;;;;;;11.40;5.40;;;;;;;13.61;51.03;101657.61;106141;1303;21968;-57
2022/12/28 11:51:28;;;;;;;36.80;10.80;;;;;;;13.67;51.72;101661.45;106107;1304;21968;-58
2022/12/28 11:54:00;;;;;;;14.20;4.80;;;;;;;13.74;52.02;101664.77;106074;1304;21963;-58
2022/12/28 11:56:46;;;;;;;8.10;4.00;;;;;;;13.83;51.36;101663.67;106135;1299;21960;-58
2022/12/28 11:59:38;;;;;;;7.80;3.50;;;;;;;13.88;50.80;101658.00;106126;1304;21964;-58
2022/12/28 12:02:27;;;;;;;9.30;4.40;;;;;;;13.79;48.90;101647.45;106205;1303;22607;-58
2022/12/28 12:04:53;;;;;;;8.00;3.80;;;;;;;13.74;48.43;101635.84;106154;1304;21957;-58
2022/12/28 12:07:23;;;;;;;7.00;3.70;;;;;;;13.71;49.02;101635.85;106113;1304;21989;-58
2022/12/28 12:10:13;;;;;;;7.70;3.20;;;;;;;13.69;48.78;101639.39;106332;1295;21970;-58
2022/12/28 12:12:47;;;;;;;7.50;3.70;;;;;;;13.53;48.19;101646.15;106384;1301;21959;-58
2022/12/28 12:15:19;;;;;;;7.30;4.50;;;;;;;13.54;48.69;101645.64;106397;1299;21966;-58
2022/12/28 12:17:52;;;;;;;7.50;3.90;;;;;;;13.56;48.98;101644.05;106270;1304;21968;-58
2022/12/28 12:20:23;;;;;;;6.00;3.60;;;;;;;13.49;48.88;101637.55;106064;1304;21958;-58
2022/12/28 12:22:58;;;;;;;8.80;4.20;;;;;;;13.44;48.91;101641.44;106184;1304;21960;-58
2022/12/28 12:25:36;;;;;;;9.70;4.90;;;;;;;13.43;49.18;101642.67;106474;1304;23070;-58
2022/12/28 12:28:28;;;;;;;7.70;4.00;;;;;;;13.47;49.06;101645.14;106382;1304;23058;-58
2022/12/28 12:30:53;;;;;;;8.00;3.70;;;;;;;13.48;49.09;101658.01;106017;1304;21971;-58
2022/12/28 12:33:29;;;;;;;7.20;3.50;;;;;;;13.42;48.72;101665.09;106093;1303;21957;-58
2022/12/28 12:36:08;;;;;;;7.50;3.50;;;;;;;13.40;49.31;101666.66;106067;1304;23111;-59
2022/12/28 12:38:46;;;;;;;8.40;3.70;;;;;;;13.45;49.10;101669.11;106400;1303;22368;-56
2022/12/28 12:41:35;;;;;;;6.80;3.50;;;;;;;13.46;48.65;101664.89;106224;1304;21965;-57
2022/12/28 12:44:14;;;;;;;8.90;4.10;;;;;;;13.41;48.02;101655.02;106071;1304;21966;-57
2022/12/28 12:47:07;;;;;;;6.90;4.20;;;;;;;13.35;47.57;101650.79;105631;1304;1002457;-58
2022/12/28 12:49:41;;;;;;;10.90;6.60;;;;;;;13.40;48.41;101653.44;106204;1303;21969;-58
2022/12/28 12:52:29;;;;;;;10.70;5.50;;;;;;;13.29;47.50;101658.40;106179;1304;22186;-57
2022/12/28 12:55:03;;;;;;;14.30;8.90;;;;;;;13.27;47.42;101660.16;105358;1299;1002618;-59
2022/12/28 12:57:57;;;;;;;15.30;7.90;;;;;;;13.31;48.48;101669.14;106131;1303;23504;-58
2022/12/28 13:00:23;;;;;;;12.50;7.10;;;;;;;13.14;47.44;101676.23;106104;1304;21956;-58
2022/12/28 13:02:54;;;;;;;10.40;7.10;;;;;;;13.13;47.84;101678.70;106136;1304;22952;-58
2022/12/28 13:05:25;;;;;;;16.30;9.60;;;;;;;13.14;48.39;101680.63;106121;1303;21965;-58
2022/12/28 13:07:55;;;;;;;11.10;5.80;;;;;;;13.16;49.44;101683.11;106192;1304;23672;-58
2022/12/28 13:10:44;;;;;;;9.90;6.20;;;;;;;13.19;49.21;101683.11;106181;1304;22097;-58
2022/12/28 13:13:16;;;;;;;8.10;4.60;;;;;;;13.04;48.33;101680.31;106165;1302;21971;-58
2022/12/28 13:15:42;;;;;;;18.60;11.80;;;;;;;12.89;48.55;101678.20;106169;1301;21972;-57
2022/12/28 13:18:19;;;;;;;11.50;6.20;;;;;;;12.90;48.99;101683.48;106134;1302;21961;-58
2022/12/28 13:21:00;;;;;;;13.80;7.00;;;;;;;12.89;49.13;101682.27;106085;1304;21958;-58
2022/12/28 13:23:28;;;;;;;13.00;6.20;;;;;;;12.86;48.77;101679.45;106284;1304;21978;-58
2022/12/28 13:25:57;;;;;;;12.30;5.30;;;;;;;12.85;49.14;101683.15;106507;1302;24312;-58
2022/12/28 13:28:28;;;;;;;12.20;5.60;;;;;;;12.80;48.81;101688.96;106234;1304;23702;-58
2022/12/28 13:31:05;;;;;;;12.30;6.60;;;;;;;12.80;49.50;101693.20;106176;1299;22656;-58
2022/12/28 16:09:34;;;;;;;23.60;13.30;;;;;;;3.03;92.44;101822.13;105116;1306;548030;-61
2022/12/28 16:12:00;;;;;;;23.90;13.40;;;;;;;6.48;73.35;101813.52;105463;1307;21996;-65
2022/12/28 16:14:26;;;;;;;21.40;11.00;;;;;;;7.09;67.42;101811.33;105191;1310;22307;-65
2022/12/28 16:16:52;;;;;;;16.70;8.50;;;;;;;7.33;64.94;101816.29;105194;1312;21991;-66
2022/12/28 16:19:18;;;;;;;17.90;9.70;;;;;;;7.54;63.72;101818.69;105244;1312;21963;-62
2022/12/28 16:21:50;;;;;;;61.10;24.60;;;;;;;7.68;62.97;101814.46;105095;1311;211827;-66
2022/12/28 16:24:18;;;;;;;64.10;25.90;;;;;;;7.81;62.27;101813.19;105586;1310;21981;-61
2022/12/28 16:26:43;;;;;;;58.90;24.10;;;;;;;7.91;61.62;101809.20;105511;1312;21975;-66
2022/12/28 16:29:09;;;;;;;64.90;26.40;;;;;;;7.97;61.02;101810.04;105543;1311;21975;-66
2022/12/28 16:31:36;;;;;;;74.00;29.80;;;;;;;7.98;60.29;101807.60;105517;1307;21970;-65
2022/12/28 16:34:03;;;;;;;57.30;22.30;;;;;;;8.00;60.13;101806.41;105592;1304;21969;-65
2022/12/28 16:36:28;;;;;;;49.20;19.80;;;;;;;8.03;59.99;101811.38;105644;1309;21970;-66
2022/12/28 16:38:54;;;;;;;44.10;19.90;;;;;;;8.09;59.41;101817.64;105573;1309;21968;-61
2022/12/28 16:41:20;;;;;;;35.70;18.70;;;;;;;8.09;59.06;101814.48;104879;1303;1002470;-61
2022/12/28 16:43:46;;;;;;;30.90;16.40;;;;;;;8.09;58.97;101816.57;105621;1297;21976;-66
2022/12/28 16:46:12;;;;;;;21.50;12.70;;;;;;;8.12;58.75;101822.58;105584;1309;21977;-66